Pagrindinis puslapis
METAR-TAF:

METAR-TAF

Oro uostai :

Providensjalas, Terksas ir Kaikosas

platuma: 21-46-25N, ilguma: 072-15-57W, Aukštis: 5 m

Dabartinis oras

Ataskaita buvo paskelbta 5 valandos ir 8 minutes, ne 00:00 UTC
Vėjas 7 kt iš Šiaurės Rytų
Temperatūra 28°C
Drėgmė 70%
Slėgis 1013 hPa
Matomumas 10 km arba daugiau
Išsisklaidę debesys ne aukštis 1500 ft

METAR: MBPV 260000Z 05007KT 9999 SCT015 28/22 Q1013

Laikas: 01:08 (05:08 UTC)

Prognozė

Ataskaita buvo paskelbta 6 valandos ir 18 minutes, ne 22:50 UTC
Prognozė galioja nuo 26 metu 00 UTC su 26 metu 24 UTC
Vėjas 9 kt iš Rytų
Matomumas 10 km arba daugiau
Išsisklaidę debesys ne aukštis 2000 ft

TAF: MBPV 252250Z 2600/2624 09009KT 9999 SCT020

Orai ataskaitas ir orų prognozės (METAR, TAF).

turimą stotys yra geltonos ir raudonos taškus žemėlapyje.

Perkelti pele per norėdami pamatyti stoties vardą.

Tada spustelėkite, norėdami matyti oro stebėjimo ir prognozės.

Norėdami pakeisti žemėlapį: spustelėkite ant žalios mygtukų su juodo kryžiaus žemyn,; žalią mygtuką su brūkšneliu, jei norite nutolinti; arba žalių rodyklių gretimoms žemėlapius.


METAR-TAF: